This is the latest recevied weather packets stored in our database for station/object EA1HTW-1. If no packets are shown the sender has not sent any weather packets the latest 10 day(s).
| Time | Temp. | Humidity | Pressure | Rain* | Wind** | Luminosity | Snow |
|---|---|---|---|---|---|---|---|
| 1777720164 | 17.22° C | 64% | 987.6 hPa | 0 mm | - | - | - |
| 1777719565 | 16.67° C | 69% | 987.6 hPa | 0 mm | - | - | - |
| 1777718964 | 16.11° C | 71% | 987.8 hPa | 0 mm | - | - | - |
| 1777718364 | 16.11° C | 70% | 987.8 hPa | 0 mm | - | - | - |
| 1777717764 | 16.11° C | 71% | 987.7 hPa | 0 mm | - | - | - |
| 1777716564 | 17.22° C | 70% | 987.8 hPa | 0 mm | - | - | - |
| 1777714164 | 15.56° C | 73% | 987.9 hPa | 0 mm | - | - | - |
| 1777712965 | 14.44° C | 78% | 988.1 hPa | 0 mm | - | - | - |
| 1777712364 | 13.89° C | 80% | 988.2 hPa | 0 mm | - | - | - |
| 1777711764 | 13.89° C | 81% | 988.1 hPa | 0 mm | - | - | - |
| 1777710564 | 13.33° C | 83% | 988.4 hPa | 0 mm | - | - | - |
| 1777709965 | 12.78° C | 85% | 988.1 hPa | 0 mm | - | - | - |
| 1777709363 | 11.67° C | 86% | 988.2 hPa | 0 mm | - | - | - |
| 1777708165 | 11.67° C | 87% | 988.5 hPa | 0 mm | - | - | - |
| 1777707563 | 11.67° C | 85% | 988.5 hPa | 0 mm | - | - | - |
| 1777706964 | 11.11° C | 84% | 988.3 hPa | 0 mm | - | - | - |
| 1777706365 | 11.11° C | 86% | 988.2 hPa | 0 mm | - | - | - |
| 1777705764 | 10.56° C | 87% | 988.2 hPa | 0 mm | - | - | - |
| 1777704563 | 10° C | 89% | 988.3 hPa | 0 mm | - | - | - |
| 1777703964 | 9.44° C | 90% | 988.3 hPa | 0 mm | - | - | - |
| 1777703362 | 9.44° C | 90% | 988.2 hPa | 0 mm | - | - | - |
| 1777702765 | 9.44° C | 90% | 988.3 hPa | 0 mm | - | - | - |
| 1777702164 | 9.44° C | 90% | 988.3 hPa | 0 mm | - | - | - |
| 1777700962 | 8.33° C | 91% | 987.8 hPa | 0 mm | - | - | - |
| 1777700363 | 8.33° C | 90% | 988 hPa | 0 mm | - | - | - |
* Rain latest hour (hover to see other rain measurements)
** Current wind speed in m/s (hover to see current wind gust speed)